Time;durP1;ratioP1;P1;durP2;ratioP2;P2;SDS_P1;SDS_P2;PMS_P1;PMS_P2;Temp;Humidity;BMP_temperature;BMP_pressure;BME280_temperature;BME280_humidity;BME280_pressure;Samples;Min_cycle;Max_cycle;Signal;HPM_P1;HPM_P2
2023/08/30 00:01:41;;;;;;;6.78;5.63;;;31.20;99.90;;;;;;5007184;23;20058;-54
2023/08/30 00:04:07;;;;;;;7.20;5.13;;;31.20;99.90;;;;;;4995673;28;20022;-55
2023/08/30 00:06:33;;;;;;;6.90;5.20;;;31.20;99.90;;;;;;4994088;28;20065;-55
2023/08/30 00:08:59;;;;;;;7.40;5.18;;;31.20;99.90;;;;;;4995811;28;20025;-56
2023/08/30 00:11:25;;;;;;;6.65;5.72;;;31.20;99.90;;;;;;4995420;28;20102;-55
2023/08/30 00:13:50;;;;;;;7.47;5.45;;;31.20;99.90;;;;;;4995378;28;20039;-55
2023/08/30 00:16:17;;;;;;;7.45;5.70;;;31.20;99.90;;;;;;4995394;28;20599;-55
2023/08/30 00:18:44;;;;;;;7.57;5.32;;;31.20;99.90;;;;;;4995430;28;20387;-55
2023/08/30 00:21:10;;;;;;;;;;;31.20;99.90;;;;;;4995592;28;20022;-55
2023/08/30 00:23:35;;;;;;;8.45;5.22;;;31.20;99.90;;;;;;4995313;28;19952;-55
2023/08/30 00:26:01;;;;;;;8.30;5.13;;;31.10;99.90;;;;;;4995049;28;20110;-55
2023/08/30 00:28:27;;;;;;;9.32;5.70;;;31.20;99.90;;;;;;4995308;28;20037;-55
2023/08/30 00:30:54;;;;;;;7.18;5.25;;;31.10;99.90;;;;;;4995068;28;20026;-55
2023/08/30 00:33:20;;;;;;;;;;;31.10;99.90;;;;;;4995392;28;20470;-55
2023/08/30 00:35:45;;;;;;;6.68;5.30;;;31.10;99.90;;;;;;4995057;28;19934;-55
2023/08/30 00:38:11;;;;;;;7.03;5.35;;;31.10;99.90;;;;;;4995136;28;20034;-55
2023/08/30 00:40:40;;;;;;;6.03;4.80;;;31.10;99.90;;;;;;4994965;28;20026;-55
2023/08/30 00:43:07;;;;;;;7.20;5.00;;;31.10;99.90;;;;;;4994727;28;20027;-56
2023/08/30 00:45:34;;;;;;;6.28;4.72;;;31.10;99.90;;;;;;4993596;28;20121;-56
2023/08/30 00:48:00;;;;;;;6.32;4.93;;;31.10;99.90;;;;;;4995001;28;20030;-57
2023/08/30 00:50:26;;;;;;;7.80;4.55;;;31.10;99.90;;;;;;4994854;28;20054;-56
2023/08/30 00:52:52;;;;;;;8.20;4.95;;;31.00;99.90;;;;;;4994681;28;20118;-56
2023/08/30 00:55:17;;;;;;;6.30;4.40;;;31.00;99.90;;;;;;4994847;28;20400;-56
2023/08/30 00:57:43;;;;;;;5.57;4.07;;;31.00;99.90;;;;;;4994539;28;20035;-56
2023/08/30 01:02:45;;;;;;;6.05;4.35;;;31.00;99.90;;;;;;4993274;28;20042;-53
2023/08/30 01:05:10;;;;;;;5.95;4.15;;;31.00;99.90;;;;;;4994296;28;20065;-53
2023/08/30 01:07:36;;;;;;;6.10;4.40;;;31.10;99.90;;;;;;4993258;28;20022;-54
2023/08/30 01:10:03;;;;;;;6.00;4.38;;;31.00;99.90;;;;;;4994542;28;20034;-53
2023/08/30 01:12:43;;;;;;;7.10;4.43;;;31.00;99.90;;;;;;4993415;28;20026;-53
2023/08/30 01:15:21;;;;;;;6.45;4.32;;;31.00;99.90;;;;;;4994285;28;20034;-53
2023/08/30 01:17:52;;;;;;;6.63;4.30;;;31.00;99.90;;;;;;4993838;28;20109;-53
2023/08/30 01:20:22;;;;;;;5.35;3.58;;;31.00;99.90;;;;;;4994215;28;20058;-54
2023/08/30 01:23:10;;;;;;;4.93;3.97;;;31.00;99.90;;;;;;4992841;28;20121;-55
2023/08/30 01:26:20;;;;;;;6.68;4.35;;;30.90;99.90;;;;;;4994132;28;20019;-54
2023/08/30 01:28:47;;;;;;;5.95;3.60;;;30.90;99.90;;;;;;4994008;28;20015;-53
2023/08/30 01:31:13;;;;;;;;;;;30.90;99.90;;;;;;4994438;28;20467;-53
2023/08/30 01:33:39;;;;;;;4.32;3.58;;;31.00;99.90;;;;;;4993971;28;20059;-53
2023/08/30 01:36:05;;;;;;;4.63;3.47;;;31.00;99.90;;;;;;4992705;28;20027;-53
2023/08/30 01:38:33;;;;;;;4.60;3.67;;;30.90;99.90;;;;;;4994235;28;20116;-53
2023/08/30 01:41:00;;;;;;;4.72;3.47;;;30.90;99.90;;;;;;4993760;28;20055;-53
2023/08/30 01:43:30;;;;;;;4.00;3.53;;;30.90;99.90;;;;;;4993724;28;20386;-54
2023/08/30 01:45:57;;;;;;;4.78;3.63;;;30.90;99.90;;;;;;4993645;28;20053;-53
2023/08/30 01:48:24;;;;;;;4.78;3.88;;;30.90;99.90;;;;;;4993633;28;20026;-53
2023/08/30 01:50:50;;;;;;;6.10;3.47;;;30.90;99.90;;;;;;4992416;28;20030;-53
2023/08/30 01:53:16;;;;;;;5.55;3.75;;;30.90;99.90;;;;;;4993460;28;20120;-54
2023/08/30 01:55:43;;;;;;;6.22;3.58;;;30.90;99.90;;;;;;4992331;28;20493;-54
2023/08/30 01:58:09;;;;;;;4.97;4.07;;;30.90;99.90;;;;;;4993787;28;20403;-54
2023/08/30 02:00:39;;;;;;;5.30;3.85;;;30.90;99.90;;;;;;4994130;28;20105;-54
2023/08/30 02:03:09;;;;;;;5.40;3.72;;;30.90;99.90;;;;;;4993610;28;20031;-55
2023/08/30 02:05:40;;;;;;;4.30;3.53;;;30.90;99.90;;;;;;4992273;28;20023;-54
2023/08/30 02:08:30;;;;;;;7.63;4.20;;;30.90;99.90;;;;;;4993734;28;20084;-54
2023/08/30 02:11:02;;;;;;;5.93;3.85;;;30.90;99.90;;;;;;4993364;28;20407;-55
2023/08/30 02:13:30;;;;;;;4.22;3.40;;;30.90;99.90;;;;;;4991854;28;20062;-55
2023/08/30 02:15:58;;;;;;;5.38;3.67;;;30.90;99.90;;;;;;4993203;28;20027;-51
2023/08/30 02:18:26;;;;;;;4.47;3.45;;;30.90;99.90;;;;;;4992077;28;20034;-52
2023/08/30 02:20:53;;;;;;;5.50;3.95;;;30.90;99.90;;;;;;4992093;28;20080;-54
2023/08/30 02:23:19;;;;;;;4.00;2.97;;;30.90;99.90;;;;;;4993258;28;20029;-55
2023/08/30 02:25:44;;;;;;;4.78;3.92;;;30.90;99.90;;;;;;4993069;28;20026;-53
2023/08/30 02:28:10;;;;;;;4.65;3.35;;;30.90;99.90;;;;;;4993012;28;20161;-53
2023/08/30 02:30:36;;;;;;;6.78;3.83;;;30.90;99.90;;;;;;4992632;28;20022;-53
2023/08/30 02:33:02;;;;;;;4.75;4.00;;;30.90;99.90;;;;;;4993356;28;20041;-54
2023/08/30 02:35:28;;;;;;;5.07;3.83;;;30.90;99.90;;;;;;4993043;28;20487;-55
2023/08/30 02:37:53;;;;;;;4.78;3.75;;;30.90;99.90;;;;;;4993057;28;20042;-53
2023/08/30 02:40:19;;;;;;;6.47;4.07;;;30.90;99.90;;;;;;4992760;28;20105;-53
2023/08/30 02:42:45;;;;;;;5.15;3.55;;;30.90;99.90;;;;;;4992899;28;20057;-54
2023/08/30 02:45:11;;;;;;;5.25;3.60;;;30.90;99.90;;;;;;4992805;28;20022;-53
2023/08/30 02:47:36;;;;;;;4.32;3.50;;;30.90;99.90;;;;;;4992997;28;20022;-56
2023/08/30 02:50:02;;;;;;;4.50;3.20;;;30.90;99.90;;;;;;4992938;28;20102;-54
2023/08/30 02:52:28;;;;;;;4.45;3.33;;;30.90;99.90;;;;;;5007688;28;20058;-54
2023/08/30 02:54:54;;;;;;;4.25;3.10;;;30.90;99.90;;;;;;4992775;28;20058;-54
2023/08/30 02:57:20;;;;;;;4.53;3.50;;;30.90;99.90;;;;;;4992766;28;20948;-54
2023/08/30 02:59:46;;;;;;;4.57;3.47;;;30.90;99.90;;;;;;4992898;28;20084;-54
2023/08/30 03:02:11;;;;;;;4.20;3.38;;;30.90;99.90;;;;;;5019813;22;20054;-47
2023/08/30 03:04:38;;;;;;;4.28;3.17;;;30.90;99.90;;;;;;5012607;28;20029;-47
2023/08/30 03:07:04;;;;;;;5.38;3.60;;;30.80;99.90;;;;;;5012494;28;20353;-47
2023/08/30 03:09:30;;;;;;;5.75;3.55;;;30.80;99.90;;;;;;5012266;28;20030;-47
2023/08/30 03:11:56;;;;;;;4.70;3.50;;;30.90;99.90;;;;;;5027248;28;20026;-47
2023/08/30 03:14:21;;;;;;;4.40;3.55;;;30.80;99.90;;;;;;5012335;28;20033;-47
2023/08/30 03:16:47;;;;;;;4.47;3.38;;;30.80;99.90;;;;;;5010903;28;20494;-47
2023/08/30 03:19:13;;;;;;;4.72;3.30;;;30.80;99.90;;;;;;5012321;28;20050;-47
2023/08/30 03:21:39;;;;;;;3.83;3.05;;;30.90;99.90;;;;;;5012489;28;20018;-47
2023/08/30 03:24:05;;;;;;;4.05;3.20;;;30.80;99.90;;;;;;5012355;28;20037;-47
2023/08/30 03:26:30;;;;;;;4.85;3.55;;;30.80;99.90;;;;;;5012235;28;20029;-48
2023/08/30 03:28:56;;;;;;;5.18;3.65;;;30.80;99.90;;;;;;5012134;28;20053;-47
2023/08/30 03:31:22;;;;;;;3.63;2.92;;;30.80;99.90;;;;;;5012153;28;20029;-46
2023/08/30 03:33:49;;;;;;;4.05;3.17;;;30.80;99.90;;;;;;5011988;28;20121;-47
2023/08/30 03:36:17;;;;;;;6.47;2.90;;;30.80;99.90;;;;;;5012097;28;20430;-47
2023/08/30 03:38:43;;;;;;;3.90;2.88;;;30.80;99.90;;;;;;5012051;28;20030;-47
2023/08/30 03:41:10;;;;;;;6.70;3.03;;;30.80;99.90;;;;;;5014169;28;20105;-48
2023/08/30 03:43:36;;;;;;;8.05;4.00;;;30.80;99.90;;;;;;5015879;28;20481;-47
2023/08/30 03:46:03;;;;;;;6.60;3.13;;;30.80;99.90;;;;;;5015602;28;20088;-48
2023/08/30 03:48:29;;;;;;;4.78;3.17;;;30.80;99.90;;;;;;5015638;28;20029;-48
2023/08/30 03:50:56;;;;;;;4.05;3.08;;;30.80;99.90;;;;;;5030809;28;20080;-47
2023/08/30 03:53:22;;;;;;;3.83;2.97;;;30.80;99.90;;;;;;5015373;28;20038;-47
2023/08/30 03:55:48;;;;;;;3.83;3.42;;;30.80;99.90;;;;;;5015606;28;20025;-47
2023/08/30 03:58:14;;;;;;;4.60;3.03;;;30.80;99.90;;;;;;5015358;28;20034;-48
2023/08/30 04:00:40;;;;;;;3.88;3.03;;;30.80;99.90;;;;;;5015798;28;20025;-47
2023/08/30 04:03:09;;;;;;;4.80;2.97;;;30.70;99.90;;;;;;5015367;28;20076;-47
2023/08/30 04:05:35;;;;;;;3.63;3.20;;;30.70;99.90;;;;;;5015378;28;20094;-48
2023/08/30 04:08:06;;;;;;;5.37;2.83;;;30.70;99.90;;;;;;5013962;28;20466;-48
2023/08/30 04:10:36;;;;;;;4.28;3.38;;;30.70;99.90;;;;;;5014191;28;20410;-47
2023/08/30 04:13:03;;;;;;;5.65;3.30;;;30.70;99.90;;;;;;5013778;28;20033;-47
2023/08/30 04:15:29;;;;;;;7.10;3.13;;;30.70;99.90;;;;;;5013918;28;20033;-47
2023/08/30 04:17:54;;;;;;;4.25;2.90;;;30.70;99.90;;;;;;5014894;28;20271;-47
2023/08/30 04:20:20;;;;;;;4.43;3.33;;;30.70;99.90;;;;;;5013674;28;20033;-47
2023/08/30 04:22:46;;;;;;;5.70;3.55;;;30.70;99.90;;;;;;5014912;28;20076;-48
2023/08/30 04:25:12;;;;;;;6.38;3.85;;;30.70;99.90;;;;;;5015025;28;20092;-46
2023/08/30 04:27:37;;;;;;;4.25;3.05;;;30.70;99.90;;;;;;5014750;28;20026;-47
2023/08/30 04:30:03;;;;;;;7.53;3.63;;;30.70;99.90;;;;;;5014850;28;20101;-47
2023/08/30 04:32:29;;;;;;;4.47;3.65;;;30.70;99.90;;;;;;5014678;28;20022;-47
2023/08/30 04:34:55;;;;;;;5.15;3.30;;;30.70;99.90;;;;;;5014692;28;20030;-48
2023/08/30 04:37:21;;;;;;;5.30;3.70;;;30.60;99.90;;;;;;5014527;28;20014;-47
2023/08/30 04:39:49;;;;;;;5.75;3.88;;;30.60;99.90;;;;;;5014555;28;20076;-47
2023/08/30 04:42:15;;;;;;;4.93;3.30;;;30.60;99.90;;;;;;5014635;28;20034;-47
2023/08/30 04:44:41;;;;;;;5.80;3.92;;;30.60;99.90;;;;;;5014649;28;20378;-47
2023/08/30 04:47:07;;;;;;;4.85;3.28;;;30.60;99.90;;;;;;5014597;28;20026;-47
2023/08/30 04:49:33;;;;;;;6.80;3.45;;;30.60;99.90;;;;;;5014447;28;20496;-47
2023/08/30 04:51:59;;;;;;;5.68;3.30;;;30.60;99.90;;;;;;5013517;28;20078;-47
2023/08/30 04:54:24;;;;;;;5.63;3.58;;;30.50;99.90;;;;;;5014378;28;20108;-47
2023/08/30 04:56:51;;;;;;;6.57;3.63;;;30.60;99.90;;;;;;5014385;28;20101;-47
2023/08/30 04:59:16;;;;;;;4.60;3.40;;;30.60;99.90;;;;;;5014453;28;20029;-47
2023/08/30 05:01:44;;;;;;;4.28;3.15;;;30.60;99.90;;;;;;5014333;28;20046;-47
2023/08/30 05:04:10;;;;;;;7.88;3.30;;;30.50;99.90;;;;;;5014135;28;20206;-47
2023/08/30 05:06:36;;;;;;;4.20;2.90;;;30.60;99.90;;;;;;5014001;28;20025;-47
2023/08/30 05:09:02;;;;;;;3.75;2.60;;;30.50;99.90;;;;;;5013912;28;20026;-47
2023/08/30 05:11:28;;;;;;;7.28;3.45;;;30.50;99.90;;;;;;5013969;28;20030;-47
2023/08/30 05:13:55;;;;;;;5.95;3.50;;;30.50;99.90;;;;;;5013879;28;20033;-47
2023/08/30 05:16:20;;;;;;;6.55;3.15;;;30.50;99.90;;;;;;5013906;28;20033;-47
2023/08/30 05:18:47;;;;;;;6.47;3.63;;;30.50;99.90;;;;;;5014049;28;20037;-48
2023/08/30 05:21:14;;;;;;;5.82;3.70;;;30.50;99.90;;;;;;5014091;28;20351;-47
2023/08/30 05:23:42;;;;;;;3.97;2.80;;;30.50;99.90;;;;;;5013771;28;20108;-47
2023/08/30 05:26:09;;;;;;;7.22;2.90;;;30.50;99.90;;;;;;5013773;28;20088;-48
2023/08/30 05:28:35;;;;;;;;;;;30.50;99.90;;;;;;5014076;28;20029;-47
2023/08/30 05:31:00;;;;;;;3.97;2.95;;;30.50;99.90;;;;;;5013831;28;19905;-47
2023/08/30 05:33:26;;;;;;;3.92;3.08;;;30.50;99.90;;;;;;5013543;28;20034;-47
2023/08/30 05:35:52;;;;;;;3.95;2.60;;;30.50;99.90;;;;;;5013585;28;20525;-47
2023/08/30 05:38:17;;;;;;;4.22;2.92;;;30.50;99.90;;;;;;5013562;28;20048;-48
2023/08/30 05:40:44;;;;;;;3.95;2.83;;;30.40;99.90;;;;;;5013627;28;20026;-47
2023/08/30 05:43:11;;;;;;;4.57;2.95;;;30.40;99.90;;;;;;5013496;28;20030;-47
2023/08/30 05:45:37;;;;;;;4.93;2.47;;;30.50;99.90;;;;;;5013322;28;20033;-47
2023/08/30 05:48:03;;;;;;;6.18;2.60;;;30.40;99.90;;;;;;5013202;28;20022;-47
2023/08/30 05:50:29;;;;;;;5.70;3.20;;;30.40;99.90;;;;;;5013416;28;20029;-48
2023/08/30 05:52:55;;;;;;;4.43;2.72;;;30.40;99.90;;;;;;5013219;28;20042;-48
2023/08/30 05:55:21;;;;;;;4.30;2.83;;;30.40;99.90;;;;;;5013192;28;20033;-47
2023/08/30 05:57:47;;;;;;;4.28;2.50;;;30.40;99.90;;;;;;5013235;28;20033;-47
2023/08/30 06:00:13;;;;;;;4.43;2.50;;;30.40;99.90;;;;;;5028280;28;20029;-48
2023/08/30 06:02:40;;;;;;;6.28;2.60;;;30.40;99.90;;;;;;5012847;28;20141;-47
2023/08/30 06:05:06;;;;;;;8.05;3.05;;;30.40;99.90;;;;;;5013024;28;20018;-48
2023/08/30 06:07:31;;;;;;;7.28;2.75;;;30.40;99.90;;;;;;5013142;28;20053;-47
2023/08/30 06:09:57;;;;;;;5.50;3.95;;;30.40;99.90;;;;;;5012920;28;20022;-47
2023/08/30 06:12:23;;;;;;;5.13;2.70;;;30.40;99.90;;;;;;5011543;28;20034;-47
2023/08/30 06:14:52;;;;;;;8.80;3.08;;;30.40;99.90;;;;;;5012953;28;20432;-47
2023/08/30 06:17:21;;;;;;;3.65;2.63;;;30.40;99.90;;;;;;5012961;28;20109;-46
2023/08/30 06:19:47;;;;;;;3.65;2.50;;;30.40;99.90;;;;;;5013198;28;20037;-46
2023/08/30 06:22:13;;;;;;;4.70;2.60;;;30.30;99.90;;;;;;5013030;28;20363;-47
2023/08/30 06:24:39;;;;;;;4.72;2.80;;;30.40;99.90;;;;;;5012891;28;20088;-47
2023/08/30 06:27:05;;;;;;;7.40;2.67;;;30.30;99.90;;;;;;5012700;28;20030;-47
2023/08/30 06:29:31;;;;;;;5.43;2.85;;;30.30;99.90;;;;;;5012695;28;20041;-47
2023/08/30 06:31:58;;;;;;;5.22;3.13;;;30.40;99.90;;;;;;5012282;28;20022;-48
2023/08/30 06:34:24;;;;;;;5.75;2.80;;;30.30;99.90;;;;;;5012740;28;20390;-49
2023/08/30 06:36:50;;;;;;;3.90;2.65;;;30.30;99.90;;;;;;5012671;28;20030;-48
2023/08/30 06:39:17;;;;;;;5.57;2.60;;;30.40;99.90;;;;;;5012796;28;20026;-48
2023/08/30 06:41:43;;;;;;;;;;;30.30;99.90;;;;;;5011730;28;20033;-49
2023/08/30 06:44:08;;;;;;;5.50;3.17;;;30.30;99.90;;;;;;5012561;28;20293;-48
2023/08/30 06:46:34;;;;;;;5.40;3.40;;;30.40;99.90;;;;;;5012601;28;20037;-48
2023/08/30 06:49:00;;;;;;;5.55;3.53;;;30.30;99.90;;;;;;5012406;28;20026;-48
2023/08/30 06:51:26;;;;;;;4.68;2.70;;;30.40;99.90;;;;;;5012492;28;20030;-47
2023/08/30 06:53:51;;;;;;;5.57;2.80;;;30.30;99.90;;;;;;5012475;28;20037;-48
2023/08/30 06:56:17;;;;;;;4.60;2.78;;;30.40;99.90;;;;;;5012549;28;20057;-48
2023/08/30 06:58:43;;;;;;;4.43;2.30;;;30.40;99.90;;;;;;5012373;28;20049;-48
2023/08/30 07:01:09;;;;;;;4.85;2.70;;;30.40;99.90;;;;;;5012032;28;20038;-48
2023/08/30 07:03:34;;;;;;;4.93;2.78;;;30.40;99.90;;;;;;5012300;28;20044;-48
2023/08/30 07:06:00;;;;;;;4.55;2.60;;;30.40;99.90;;;;;;5012290;28;20060;-48
2023/08/30 07:08:26;;;;;;;4.35;2.75;;;30.40;99.90;;;;;;5012368;28;20034;-48
2023/08/30 07:10:52;;;;;;;3.33;2.72;;;30.40;99.90;;;;;;5012326;28;20022;-48
2023/08/30 07:13:18;;;;;;;3.63;2.78;;;30.40;99.90;;;;;;5012445;28;20370;-48
2023/08/30 07:15:43;;;;;;;3.83;2.63;;;30.40;99.90;;;;;;5013604;28;20097;-48
2023/08/30 07:18:10;;;;;;;4.78;2.78;;;30.40;99.90;;;;;;5016225;28;20060;-47
2023/08/30 07:20:38;;;;;;;4.07;2.97;;;30.40;99.90;;;;;;5016207;28;20022;-48
2023/08/30 07:23:04;;;;;;;5.70;2.88;;;30.40;99.90;;;;;;5016139;28;20030;-48
2023/08/30 07:25:30;;;;;;;4.13;2.80;;;30.40;99.90;;;;;;5016035;28;20070;-48
2023/08/30 07:27:56;;;;;;;3.65;2.83;;;30.40;99.90;;;;;;5016003;28;20044;-48
2023/08/30 07:30:22;;;;;;;6.28;2.88;;;30.50;99.90;;;;;;5016177;28;20469;-48
2023/08/30 07:32:48;;;;;;;3.53;2.72;;;30.40;99.90;;;;;;5016083;28;20033;-48
2023/08/30 07:35:14;;;;;;;3.70;2.50;;;30.40;99.90;;;;;;5015856;28;20079;-48
2023/08/30 07:37:40;;;;;;;3.92;2.65;;;30.40;99.90;;;;;;5015814;28;20101;-47
2023/08/30 07:40:07;;;;;;;5.25;2.42;;;30.50;99.90;;;;;;5015873;28;20108;-46
2023/08/30 07:42:32;;;;;;;4.35;2.58;;;30.50;99.90;;;;;;5015637;28;20021;-46
2023/08/30 07:44:58;;;;;;;4.18;2.90;;;30.40;99.90;;;;;;5015677;28;20113;-47
2023/08/30 07:47:24;;;;;;;3.67;2.45;;;30.50;99.90;;;;;;5015627;28;20018;-47
2023/08/30 07:49:50;;;;;;;3.67;2.80;;;30.50;99.90;;;;;;5015974;28;20456;-47
2023/08/30 07:52:15;;;;;;;3.75;2.58;;;30.50;99.90;;;;;;5015396;28;20033;-47
2023/08/30 07:54:41;;;;;;;5.97;2.80;;;30.50;99.90;;;;;;5015446;28;20037;-47
2023/08/30 07:57:07;;;;;;;5.63;3.50;;;30.50;99.90;;;;;;5015384;28;20022;-47
2023/08/30 07:59:36;;;;;;;4.18;3.00;;;30.50;99.90;;;;;;5015381;28;20033;-47
2023/08/30 08:02:03;;;;;;;3.88;2.70;;;30.50;99.90;;;;;;5015100;28;20045;-47
2023/08/30 08:04:29;;;;;;;2.88;2.38;;;30.60;99.90;;;;;;5015380;28;20047;-47
2023/08/30 08:06:55;;;;;;;5.22;3.00;;;30.60;99.90;;;;;;5015339;28;20026;-46
2023/08/30 08:09:21;;;;;;;4.65;2.85;;;30.60;99.90;;;;;;5015430;28;20037;-47
2023/08/30 08:11:49;;;;;;;5.88;3.28;;;30.50;99.90;;;;;;5014979;28;20018;-47
2023/08/30 08:14:15;;;;;;;3.88;3.22;;;30.60;99.90;;;;;;5015136;28;20730;-47
2023/08/30 08:16:41;;;;;;;3.85;2.90;;;30.60;99.90;;;;;;5015019;28;20104;-47
2023/08/30 08:19:07;;;;;;;4.45;3.10;;;30.60;99.90;;;;;;5015113;28;20026;-50
2023/08/30 08:21:33;;;;;;;4.10;3.03;;;30.60;99.90;;;;;;5015011;28;20105;-47
2023/08/30 08:24:00;;;;;;;4.05;3.00;;;30.60;99.90;;;;;;5013657;28;20385;-48
2023/08/30 08:26:25;;;;;;;4.05;3.03;;;30.60;99.90;;;;;;5014328;28;20037;-47
2023/08/30 08:28:51;;;;;;;4.35;2.95;;;30.70;99.90;;;;;;5014330;28;20026;-47
2023/08/30 08:31:17;;;;;;;5.80;3.45;;;30.70;99.90;;;;;;5014683;28;20064;-47
2023/08/30 08:33:43;;;;;;;4.53;3.65;;;30.60;99.90;;;;;;5014712;28;20037;-47
2023/08/30 08:36:09;;;;;;;4.63;3.30;;;30.60;99.90;;;;;;5014599;28;20101;-48
2023/08/30 08:38:35;;;;;;;4.10;2.95;;;30.70;99.90;;;;;;5014715;28;20180;-48
2023/08/30 08:41:05;;;;;;;6.80;3.60;;;30.70;99.90;;;;;;5014431;28;20438;-48
2023/08/30 08:43:33;;;;;;;4.50;2.92;;;30.70;99.90;;;;;;5013257;28;20482;-48
2023/08/30 08:46:02;;;;;;;5.68;3.28;;;30.70;99.90;;;;;;5014720;28;20087;-48
2023/08/30 08:48:29;;;;;;;4.82;3.25;;;30.70;99.90;;;;;;5014552;28;20072;-47
2023/08/30 08:50:57;;;;;;;6.43;3.40;;;30.70;99.90;;;;;;5014604;28;20072;-47
2023/08/30 08:53:23;;;;;;;4.55;3.08;;;30.70;99.90;;;;;;5013328;28;20391;-47
2023/08/30 08:55:49;;;;;;;3.78;3.30;;;30.70;99.90;;;;;;5014467;28;20417;-47
2023/08/30 08:58:15;;;;;;;4.63;3.20;;;30.70;99.90;;;;;;5014334;28;20088;-47
2023/08/30 09:00:42;;;;;;;5.88;3.83;;;30.70;99.90;;;;;;5012916;28;20488;-47
2023/08/30 09:03:08;;;;;;;5.88;3.15;;;30.80;99.90;;;;;;5012855;28;20025;-47
2023/08/30 09:05:37;;;;;;;5.38;3.17;;;30.80;99.90;;;;;;5013960;28;20494;-47
2023/08/30 09:08:04;;;;;;;4.38;3.53;;;30.80;99.90;;;;;;5013988;28;20030;-47
2023/08/30 09:10:31;;;;;;;;;;;30.80;99.90;;;;;;5014341;28;20121;-47
2023/08/30 09:12:57;;;;;;;5.40;3.65;;;30.80;99.90;;;;;;5014154;28;19909;-48
2023/08/30 09:15:33;;;;;;;5.22;3.83;;;30.80;99.90;;;;;;5014148;28;20382;-47
2023/08/30 09:17:59;;;;;;;5.03;3.70;;;30.80;99.90;;;;;;5013786;28;20022;-47
2023/08/30 09:20:25;;;;;;;3.80;3.30;;;30.80;99.90;;;;;;5012757;28;20022;-47
2023/08/30 09:22:51;;;;;;;4.55;3.42;;;30.80;99.90;;;;;;5013744;28;20026;-47
2023/08/30 09:25:25;;;;;;;8.13;4.20;;;30.80;99.90;;;;;;5013689;28;20022;-47
2023/08/30 09:27:51;;;;;;;6.15;3.65;;;30.80;99.90;;;;;;5013652;28;20022;-48
2023/08/30 09:30:22;;;;;;;5.30;3.65;;;30.80;99.90;;;;;;5013754;28;20056;-47
2023/08/30 09:32:48;;;;;;;6.22;4.03;;;30.80;99.90;;;;;;5013471;28;20343;-47
2023/08/30 09:35:13;;;;;;;6.22;3.97;;;30.80;99.90;;;;;;5013537;28;20032;-48
2023/08/30 09:37:39;;;;;;;7.50;4.03;;;30.90;99.90;;;;;;5013576;28;20092;-47
2023/08/30 09:40:06;;;;;;;8.30;4.50;;;30.80;99.90;;;;;;5013110;28;20355;-48
2023/08/30 09:42:32;;;;;;;5.20;4.43;;;30.80;99.90;;;;;;5013459;28;20377;-46
2023/08/30 09:44:58;;;;;;;6.85;4.30;;;30.80;99.90;;;;;;5013626;28;20520;-47
2023/08/30 09:47:29;;;;;;;9.18;4.88;;;30.80;99.90;;;;;;5013323;28;20045;-47
2023/08/30 09:49:55;;;;;;;8.13;5.22;;;30.80;99.90;;;;;;5013539;28;20040;-46
2023/08/30 09:52:27;;;;;;;11.20;4.70;;;30.90;99.90;;;;;;5013210;28;20034;-47
2023/08/30 09:54:53;;;;;;;7.55;4.70;;;30.90;99.90;;;;;;5013169;28;20109;-47
2023/08/30 09:57:21;;;;;;;9.77;5.10;;;30.90;99.90;;;;;;5013130;28;20029;-47
2023/08/30 09:59:48;;;;;;;11.23;5.25;;;30.90;99.90;;;;;;5013196;28;20026;-47
2023/08/30 10:02:15;;;;;;;9.32;4.93;;;30.90;99.90;;;;;;5012965;28;20050;-47
2023/08/30 10:04:42;;;;;;;8.75;5.28;;;30.90;99.90;;;;;;5013320;28;20038;-47
2023/08/30 10:07:09;;;;;;;10.38;5.60;;;30.90;99.90;;;;;;5013048;28;20018;-47
2023/08/30 10:09:38;;;;;;;8.10;4.95;;;30.90;99.90;;;;;;5012919;28;20034;-47
2023/08/30 10:12:05;;;;;;;12.43;5.32;;;31.00;99.90;;;;;;5011733;28;20014;-47
2023/08/30 10:14:31;;;;;;;9.90;5.40;;;31.00;99.90;;;;;;5013050;28;20026;-47
2023/08/30 10:17:03;;;;;;;10.93;5.53;;;31.00;99.90;;;;;;5013085;28;20030;-48
2023/08/30 10:19:29;;;;;;;9.55;5.40;;;31.00;99.90;;;;;;5012970;28;20022;-47
2023/08/30 10:22:08;;;;;;;13.33;5.47;;;31.00;99.90;;;;;;5012616;28;20025;-47
2023/08/30 10:24:42;;;;;;;12.70;6.65;;;31.10;99.90;;;;;;5012671;28;20259;-47
2023/08/30 10:27:10;;;;;;;10.00;5.28;;;31.10;99.90;;;;;;5012630;28;20036;-48
2023/08/30 10:29:37;;;;;;;8.48;5.40;;;31.10;99.90;;;;;;5012764;28;20076;-51
2023/08/30 10:32:04;;;;;;;13.05;5.78;;;31.10;99.90;;;;;;5012632;28;20022;-47
2023/08/30 10:34:34;;;;;;;10.07;4.93;;;31.10;99.90;;;;;;5012801;28;20030;-48
2023/08/30 10:37:02;;;;;;;13.07;6.57;;;31.20;99.90;;;;;;5012955;28;20033;-47
2023/08/30 10:39:37;;;;;;;11.27;6.05;;;31.20;99.90;;;;;;5012694;28;20041;-47
2023/08/30 10:42:16;;;;;;;10.50;6.20;;;31.20;99.90;;;;;;5012518;28;20118;-47
2023/08/30 10:44:59;;;;;;;10.68;5.78;;;31.20;99.90;;;;;;5011055;28;20531;-47
2023/08/30 10:47:30;;;;;;;10.00;6.32;;;31.30;99.90;;;;;;5011168;28;20490;-47
2023/08/30 10:49:57;;;;;;;8.30;5.13;;;31.30;99.90;;;;;;5011706;28;20030;-47
2023/08/30 10:52:25;;;;;;;9.52;6.07;;;31.30;99.90;;;;;;5011135;28;20030;-47
2023/08/30 10:54:51;;;;;;;8.82;5.05;;;31.30;99.90;;;;;;5012355;28;20034;-47
2023/08/30 10:57:24;;;;;;;8.60;5.82;;;31.30;99.90;;;;;;5012368;28;20026;-46
2023/08/30 11:00:09;;;;;;;10.90;5.70;;;31.40;99.90;;;;;;5012300;28;20033;-47
2023/08/30 11:02:38;;;;;;;8.70;5.80;;;31.40;99.90;;;;;;5012001;28;20072;-47
2023/08/30 11:05:08;;;;;;;9.50;5.22;;;31.40;99.90;;;;;;5012330;28;20028;-51
2023/08/30 11:07:35;;;;;;;13.93;6.10;;;31.40;99.90;;;;;;5012286;28;20104;-46
2023/08/30 11:10:00;;;;;;;11.02;5.85;;;31.40;99.90;;;;;;5012559;28;20105;-47
2023/08/30 11:12:27;;;;;;;9.75;5.85;;;31.40;99.90;;;;;;5011991;28;20125;-47
2023/08/30 11:14:54;;;;;;;9.70;6.13;;;31.40;99.90;;;;;;5010936;28;20117;-47
2023/08/30 11:17:20;;;;;;;;;;;31.40;99.90;;;;;;5012632;28;20057;-46
2023/08/30 11:19:45;;;;;;;11.95;6.05;;;31.50;99.90;;;;;;5012182;28;19942;-46
2023/08/30 11:22:17;;;;;;;9.52;6.25;;;31.50;99.90;;;;;;5010912;28;20101;-47
2023/08/30 11:24:43;;;;;;;9.02;5.82;;;31.50;99.90;;;;;;5010850;28;20018;-47
2023/08/30 11:27:10;;;;;;;13.20;6.57;;;31.50;99.90;;;;;;5012002;28;20064;-46
2023/08/30 11:29:35;;;;;;;9.40;5.97;;;31.50;99.90;;;;;;5012123;28;20137;-46
2023/08/30 11:32:01;;;;;;;9.30;6.20;;;31.60;99.90;;;;;;5012294;28;20053;-46
2023/08/30 11:34:27;;;;;;;8.82;5.47;;;31.60;99.90;;;;;;5011934;28;20436;-47
2023/08/30 11:36:53;;;;;;;12.02;6.05;;;31.60;99.90;;;;;;5012036;28;20033;-47
2023/08/30 11:39:20;;;;;;;9.63;5.40;;;31.60;99.90;;;;;;5011791;28;20022;-47
2023/08/30 11:41:46;;;;;;;9.27;6.10;;;31.60;99.90;;;;;;5011749;28;20026;-47
2023/08/30 11:44:12;;;;;;;8.25;5.47;;;31.60;99.90;;;;;;5011874;28;20030;-47
2023/08/30 11:46:38;;;;;;;7.40;4.97;;;31.60;99.90;;;;;;5011771;28;20481;-47
2023/08/30 11:49:04;;;;;;;9.98;6.15;;;31.60;99.90;;;;;;5012111;28;20037;-47
2023/08/30 11:51:31;;;;;;;9.30;5.07;;;31.60;99.90;;;;;;5011957;28;20720;-47
2023/08/30 11:53:57;;;;;;;8.32;5.47;;;31.60;99.90;;;;;;5010537;28;20038;-47
2023/08/30 11:56:25;;;;;;;8.73;5.72;;;31.60;99.90;;;;;;5010733;28;20354;-47
2023/08/30 11:58:51;;;;;;;7.57;4.97;;;31.70;99.90;;;;;;5011675;28;20393;-46
2023/08/30 12:01:19;;;;;;;8.18;5.43;;;31.70;99.90;;;;;;5012032;28;20042;-46
2023/08/30 12:03:50;;;;;;;8.63;5.47;;;31.70;99.90;;;;;;5015104;28;20064;-46
2023/08/30 12:06:16;;;;;;;8.30;5.05;;;31.70;99.90;;;;;;5015132;28;20028;-46
2023/08/30 12:08:42;;;;;;;10.98;6.22;;;31.70;99.90;;;;;;5015078;28;20092;-46
2023/08/30 12:11:19;;;;;;;9.13;4.68;;;31.70;99.90;;;;;;5015047;28;20029;-47
2023/08/30 12:13:45;;;;;;;8.30;4.65;;;31.70;99.90;;;;;;5015134;28;20091;-46
2023/08/30 12:16:16;;;;;;;8.45;4.80;;;31.80;99.90;;;;;;5015082;28;20486;-48
2023/08/30 12:18:41;;;;;;;6.70;5.05;;;31.80;99.90;;;;;;5014790;28;20089;-47
2023/08/30 12:21:08;;;;;;;7.57;5.40;;;31.80;99.90;;;;;;5014985;28;20022;-47
2023/08/30 12:23:34;;;;;;;8.88;5.20;;;31.80;99.90;;;;;;5015183;28;20037;-46
2023/08/30 12:26:08;;;;;;;9.10;5.40;;;31.80;99.90;;;;;;5014835;28;20022;-46
2023/08/30 12:28:35;;;;;;;9.88;5.30;;;31.80;99.90;;;;;;5015094;28;20036;-46
2023/08/30 12:31:01;;;;;;;;;;;31.80;99.90;;;;;;5015040;28;20026;-48
2023/08/30 12:33:28;;;;;;;11.60;5.30;;;31.80;99.90;;;;;;5013535;28;19939;-47
2023/08/30 12:35:54;;;;;;;6.60;4.55;;;31.90;99.90;;;;;;5014746;28;20104;-47
2023/08/30 12:38:21;;;;;;;8.23;4.70;;;31.90;99.90;;;;;;5014665;28;20034;-46
2023/08/30 12:40:49;;;;;;;12.70;5.20;;;31.90;99.90;;;;;;5014567;28;20022;-47
2023/08/30 12:43:15;;;;;;;7.53;4.90;;;31.80;99.90;;;;;;5014428;28;20517;-47
2023/08/30 12:45:42;;;;;;;7.57;4.82;;;31.90;99.90;;;;;;5014551;28;20080;-47
2023/08/30 12:48:09;;;;;;;9.02;5.10;;;31.90;99.90;;;;;;5014643;28;20080;-48
2023/08/30 12:50:36;;;;;;;11.82;4.75;;;31.90;99.90;;;;;;5014651;28;20014;-47